createdAt,value
2022-11-29T09:22:11.504Z,16.40
2022-11-29T09:37:16.163Z,10.77
2022-11-29T09:52:29.484Z,9.50
2022-11-29T10:07:38.734Z,9.30
2022-11-29T10:22:49.421Z,7.82
2022-11-29T10:38:29.155Z,8.20
2022-11-29T10:53:25.198Z,7.25
2022-11-29T11:08:31.212Z,7.25
2022-11-29T11:23:42.580Z,7.00
2022-11-29T11:38:54.144Z,6.40
2022-11-29T11:53:59.035Z,6.28
2022-11-29T12:09:10.898Z,6.68
2022-11-29T12:24:22.841Z,5.35
2022-11-29T12:39:39.746Z,5.32
2022-11-29T12:54:57.533Z,5.20
2022-11-29T13:10:28.142Z,4.25
2022-11-29T13:25:37.177Z,4.20
2022-11-29T13:40:53.285Z,3.85
2022-11-29T13:56:01.675Z,3.22
2022-11-29T14:11:09.593Z,3.80
2022-11-29T14:26:31.480Z,3.58
2022-11-29T14:41:52.260Z,3.03
2022-11-29T14:56:56.824Z,2.80
2022-11-29T15:12:05.033Z,2.70
2022-11-29T15:27:14.256Z,2.95
2022-11-29T15:42:18.819Z,2.63
2022-11-29T15:57:27.380Z,2.58
2022-11-29T16:12:33.004Z,2.40
2022-11-29T16:27:37.839Z,2.50
2022-11-29T16:42:44.289Z,2.30
2022-11-29T16:57:49.381Z,2.17
2022-11-29T17:12:54.054Z,2.28
2022-11-29T17:27:58.846Z,2.20
2022-11-29T17:43:03.562Z,3.05
2022-11-29T17:58:08.204Z,2.22
2022-11-29T18:13:12.836Z,2.40
2022-11-29T18:28:17.449Z,2.38
2022-11-29T18:43:22.018Z,2.30
2022-11-29T18:58:26.649Z,2.00
2022-11-29T19:13:31.928Z,2.38
2022-11-29T19:28:38.801Z,2.20
2022-11-29T19:43:43.677Z,2.35
2022-11-29T19:58:48.788Z,2.38
2022-11-29T20:13:56.675Z,2.20
2022-11-29T20:29:02.141Z,2.30
2022-11-29T20:44:07.216Z,2.10
2022-11-29T20:59:11.876Z,2.30
2022-11-29T21:14:16.953Z,2.72
